sensor_id;sensor_type;location;lat;lon;timestamp;pressure;altitude;pressure_sealevel;temperature;humidity
35655;BME280;21773;50.010;19.972;2023-03-02T00:02:05;99591.66;;;4.20;44.53
35655;BME280;21773;50.010;19.972;2023-03-02T00:05:11;99591.81;;;4.18;44.13
35655;BME280;21773;50.010;19.972;2023-03-02T00:08:17;99598.13;;;4.17;44.34
35655;BME280;21773;50.010;19.972;2023-03-02T00:11:21;99599.97;;;4.17;44.46
35655;BME280;21773;50.010;19.972;2023-03-02T00:14:25;99595.63;;;4.16;44.06
35655;BME280;21773;50.010;19.972;2023-03-02T00:17:30;99597.78;;;4.12;44.30
35655;BME280;21773;50.010;19.972;2023-03-02T00:20:33;99604.13;;;4.11;43.96
35655;BME280;21773;50.010;19.972;2023-03-02T00:23:37;99592.94;;;4.08;43.80
35655;BME280;21773;50.010;19.972;2023-03-02T00:26:41;99573.91;;;3.95;43.99
35655;BME280;21773;50.010;19.972;2023-03-02T00:29:45;99589.09;;;4.02;44.33
35655;BME280;21773;50.010;19.972;2023-03-02T00:32:50;99590.75;;;3.95;44.17
35655;BME280;21773;50.010;19.972;2023-03-02T00:35:53;99591.06;;;3.92;44.32
35655;BME280;21773;50.010;19.972;2023-03-02T00:38:56;99591.41;;;3.89;44.61
35655;BME280;21773;50.010;19.972;2023-03-02T00:42:00;99566.00;;;3.69;44.27
35655;BME280;21773;50.010;19.972;2023-03-02T00:45:04;99588.38;;;3.84;44.57
35655;BME280;21773;50.010;19.972;2023-03-02T00:48:09;99585.19;;;3.80;44.90
35655;BME280;21773;50.010;19.972;2023-03-02T00:51:13;99574.00;;;3.77;45.09
35655;BME280;21773;50.010;19.972;2023-03-02T00:54:17;99575.72;;;3.86;45.30
35655;BME280;21773;50.010;19.972;2023-03-02T00:57:20;99578.91;;;3.89;44.91
35655;BME280;21773;50.010;19.972;2023-03-02T01:00:24;99570.50;;;3.76;45.21
35655;BME280;21773;50.010;19.972;2023-03-02T01:03:34;99580.66;;;3.73;45.67
35655;BME280;21773;50.010;19.972;2023-03-02T01:06:37;99573.47;;;3.65;45.26
35655;BME280;21773;50.010;19.972;2023-03-02T01:09:48;99572.50;;;3.66;45.91
35655;BME280;21773;50.010;19.972;2023-03-02T01:12:51;99569.47;;;3.61;45.64
35655;BME280;21773;50.010;19.972;2023-03-02T01:16:01;99570.13;;;3.63;45.52
35655;BME280;21773;50.010;19.972;2023-03-02T01:19:06;99572.66;;;3.65;45.85
35655;BME280;21773;50.010;19.972;2023-03-02T01:22:10;99562.47;;;3.68;45.53
35655;BME280;21773;50.010;19.972;2023-03-02T01:25:13;99563.47;;;3.67;45.23
35655;BME280;21773;50.010;19.972;2023-03-02T01:28:16;99560.78;;;3.59;45.57
35655;BME280;21773;50.010;19.972;2023-03-02T01:31:20;99557.63;;;3.56;45.57
35655;BME280;21773;50.010;19.972;2023-03-02T01:34:25;99549.28;;;3.59;45.77
35655;BME280;21773;50.010;19.972;2023-03-02T01:37:29;99547.06;;;3.46;46.03
35655;BME280;21773;50.010;19.972;2023-03-02T01:40:32;99568.03;;;3.41;46.47
35655;BME280;21773;50.010;19.972;2023-03-02T01:43:36;99563.00;;;3.38;46.89
35655;BME280;21773;50.010;19.972;2023-03-02T01:46:40;99560.53;;;3.36;46.85
35655;BME280;21773;50.010;19.972;2023-03-02T01:49:47;99550.47;;;3.22;46.42
35655;BME280;21773;50.010;19.972;2023-03-02T01:52:54;99546.63;;;3.25;47.02
35655;BME280;21773;50.010;19.972;2023-03-02T01:55:58;99537.59;;;3.18;46.78
35655;BME280;21773;50.010;19.972;2023-03-02T01:59:07;99518.44;;;3.14;47.29
35655;BME280;21773;50.010;19.972;2023-03-02T02:02:12;99527.00;;;3.26;47.02
35655;BME280;21773;50.010;19.972;2023-03-02T02:05:20;99512.84;;;3.25;46.57
35655;BME280;21773;50.010;19.972;2023-03-02T02:08:25;99514.31;;;3.20;47.08
35655;BME280;21773;50.010;19.972;2023-03-02T02:11:28;99519.47;;;3.21;47.15
35655;BME280;21773;50.010;19.972;2023-03-02T02:14:32;99527.63;;;3.20;47.21
35655;BME280;21773;50.010;19.972;2023-03-02T02:17:35;99528.13;;;3.23;46.97
35655;BME280;21773;50.010;19.972;2023-03-02T02:20:42;99522.53;;;3.34;47.22
35655;BME280;21773;50.010;19.972;2023-03-02T02:23:56;99512.84;;;3.33;46.29
35655;BME280;21773;50.010;19.972;2023-03-02T02:27:05;99508.34;;;3.26;46.41
35655;BME280;21773;50.010;19.972;2023-03-02T02:30:10;99514.31;;;3.28;47.24
35655;BME280;21773;50.010;19.972;2023-03-02T02:33:19;99514.19;;;3.29;46.37
35655;BME280;21773;50.010;19.972;2023-03-02T02:36:28;99513.84;;;3.32;46.39
35655;BME280;21773;50.010;19.972;2023-03-02T02:39:41;99506.34;;;3.28;46.59
35655;BME280;21773;50.010;19.972;2023-03-02T02:42:49;99510.50;;;3.22;46.30
35655;BME280;21773;50.010;19.972;2023-03-02T02:45:56;99502.31;;;3.24;46.88
35655;BME280;21773;50.010;19.972;2023-03-02T02:49:01;99505.53;;;3.27;46.34
35655;BME280;21773;50.010;19.972;2023-03-02T02:52:06;99507.00;;;3.22;46.82
35655;BME280;21773;50.010;19.972;2023-03-02T02:55:14;99496.28;;;3.14;47.18
35655;BME280;21773;50.010;19.972;2023-03-02T02:58:27;99494.31;;;3.16;46.93
35655;BME280;21773;50.010;19.972;2023-03-02T03:01:33;99488.16;;;3.23;46.83
35655;BME280;21773;50.010;19.972;2023-03-02T03:04:37;99460.44;;;3.08;46.94
35655;BME280;21773;50.010;19.972;2023-03-02T03:07:42;99486.03;;;3.27;47.18
35655;BME280;21773;50.010;19.972;2023-03-02T03:10:45;99482.00;;;3.23;47.31
35655;BME280;21773;50.010;19.972;2023-03-02T03:13:55;99458.69;;;3.25;46.82
35655;BME280;21773;50.010;19.972;2023-03-02T03:16:59;99479.41;;;3.39;46.46
35655;BME280;21773;50.010;19.972;2023-03-02T03:20:03;99475.06;;;3.38;46.39
35655;BME280;21773;50.010;19.972;2023-03-02T03:23:10;99478.25;;;3.41;46.69
35655;BME280;21773;50.010;19.972;2023-03-02T03:26:14;99473.28;;;3.46;46.13
35655;BME280;21773;50.010;19.972;2023-03-02T03:29:22;99472.25;;;3.47;45.84
35655;BME280;21773;50.010;19.972;2023-03-02T03:32:29;99461.78;;;3.46;45.68
35655;BME280;21773;50.010;19.972;2023-03-02T03:35:38;99466.09;;;3.47;45.72
35655;BME280;21773;50.010;19.972;2023-03-02T03:38:41;99466.22;;;3.37;46.27
35655;BME280;21773;50.010;19.972;2023-03-02T03:41:45;99452.38;;;3.26;46.13
35655;BME280;21773;50.010;19.972;2023-03-02T03:44:50;99454.84;;;3.19;46.27
35655;BME280;21773;50.010;19.972;2023-03-02T03:47:53;99438.47;;;2.98;46.41
35655;BME280;21773;50.010;19.972;2023-03-02T03:50:57;99445.41;;;2.91;46.52
35655;BME280;21773;50.010;19.972;2023-03-02T03:54:01;99448.91;;;2.91;46.95
35655;BME280;21773;50.010;19.972;2023-03-02T03:57:11;99455.06;;;2.92;46.86
35655;BME280;21773;50.010;19.972;2023-03-02T04:00:17;99453.53;;;2.89;46.97
35655;BME280;21773;50.010;19.972;2023-03-02T04:03:26;99450.72;;;2.83;47.35
35655;BME280;21773;50.010;19.972;2023-03-02T04:06:30;99460.16;;;2.77;47.12
35655;BME280;21773;50.010;19.972;2023-03-02T04:09:34;99452.47;;;2.74;47.47
35655;BME280;21773;50.010;19.972;2023-03-02T04:12:41;99442.47;;;2.68;46.86
35655;BME280;21773;50.010;19.972;2023-03-02T04:15:47;99439.81;;;2.68;47.15
35655;BME280;21773;50.010;19.972;2023-03-02T04:18:50;99449.03;;;2.82;47.31
35655;BME280;21773;50.010;19.972;2023-03-02T04:21:54;99444.31;;;2.76;46.77
35655;BME280;21773;50.010;19.972;2023-03-02T04:25:00;99455.97;;;2.75;46.86
35655;BME280;21773;50.010;19.972;2023-03-02T04:28:04;99456.66;;;2.77;47.09
35655;BME280;21773;50.010;19.972;2023-03-02T04:31:12;99459.28;;;2.69;47.14
35655;BME280;21773;50.010;19.972;2023-03-02T04:34:16;99448.75;;;2.59;47.48
35655;BME280;21773;50.010;19.972;2023-03-02T04:37:19;99443.00;;;2.46;47.48
35655;BME280;21773;50.010;19.972;2023-03-02T04:40:23;99446.97;;;2.42;47.26
35655;BME280;21773;50.010;19.972;2023-03-02T04:43:27;99450.09;;;2.37;47.99
35655;BME280;21773;50.010;19.972;2023-03-02T04:46:31;99442.56;;;2.33;48.02
35655;BME280;21773;50.010;19.972;2023-03-02T04:49:36;99448.13;;;2.39;48.37
35655;BME280;21773;50.010;19.972;2023-03-02T04:52:39;99443.94;;;2.37;47.55
35655;BME280;21773;50.010;19.972;2023-03-02T04:55:43;99443.78;;;2.38;47.64
35655;BME280;21773;50.010;19.972;2023-03-02T04:58:46;99445.28;;;2.41;48.17
35655;BME280;21773;50.010;19.972;2023-03-02T05:01:52;99443.00;;;2.46;47.97
35655;BME280;21773;50.010;19.972;2023-03-02T05:04:56;99451.03;;;2.54;47.88
35655;BME280;21773;50.010;19.972;2023-03-02T05:07:59;99453.72;;;2.54;47.65
35655;BME280;21773;50.010;19.972;2023-03-02T05:11:04;99442.00;;;2.47;47.43
35655;BME280;21773;50.010;19.972;2023-03-02T05:14:09;99446.69;;;2.53;47.44
35655;BME280;21773;50.010;19.972;2023-03-02T05:17:14;99454.88;;;2.59;46.97
35655;BME280;21773;50.010;19.972;2023-03-02T05:20:18;99430.66;;;2.45;47.13
35655;BME280;21773;50.010;19.972;2023-03-02T05:23:22;99459.84;;;2.54;46.93
35655;BME280;21773;50.010;19.972;2023-03-02T05:26:29;99462.59;;;2.45;47.30
35655;BME280;21773;50.010;19.972;2023-03-02T05:29:33;99461.78;;;2.44;47.58
35655;BME280;21773;50.010;19.972;2023-03-02T05:32:38;99471.97;;;2.49;47.33
35655;BME280;21773;50.010;19.972;2023-03-02T05:35:42;99459.69;;;2.56;47.28
35655;BME280;21773;50.010;19.972;2023-03-02T05:38:46;99455.06;;;2.58;47.54
35655;BME280;21773;50.010;19.972;2023-03-02T05:41:49;99454.72;;;2.61;47.36
35655;BME280;21773;50.010;19.972;2023-03-02T05:44:52;99455.59;;;2.70;47.85
35655;BME280;21773;50.010;19.972;2023-03-02T05:47:57;99451.00;;;2.80;47.69
35655;BME280;21773;50.010;19.972;2023-03-02T05:51:00;99457.88;;;2.90;47.59
35655;BME280;21773;50.010;19.972;2023-03-02T05:54:04;99444.94;;;2.95;47.22
35655;BME280;21773;50.010;19.972;2023-03-02T05:57:07;99453.16;;;3.18;47.15
35655;BME280;21773;50.010;19.972;2023-03-02T06:00:12;99453.72;;;3.30;46.96
35655;BME280;21773;50.010;19.972;2023-03-02T06:03:17;99466.78;;;3.57;46.88
35655;BME280;21773;50.010;19.972;2023-03-02T06:06:20;99464.84;;;3.75;46.71
35655;BME280;21773;50.010;19.972;2023-03-02T06:09:24;99472.00;;;3.91;46.42
35655;BME280;21773;50.010;19.972;2023-03-02T06:12:28;99473.56;;;4.10;46.93
35655;BME280;21773;50.010;19.972;2023-03-02T06:15:31;99477.38;;;4.31;46.34
35655;BME280;21773;50.010;19.972;2023-03-02T06:18:36;99473.34;;;4.52;46.06
35655;BME280;21773;50.010;19.972;2023-03-02T06:21:42;99471.31;;;4.78;45.76
35655;BME280;21773;50.010;19.972;2023-03-02T06:24:45;99412.09;;;4.58;45.45
35655;BME280;21773;50.010;19.972;2023-03-02T06:27:50;99468.69;;;5.09;45.04
35655;BME280;21773;50.010;19.972;2023-03-02T06:30:54;99473.47;;;5.30;44.84
35655;BME280;21773;50.010;19.972;2023-03-02T06:33:59;99466.00;;;5.56;44.55
35655;BME280;21773;50.010;19.972;2023-03-02T06:37:02;99478.97;;;5.98;43.64
35655;BME280;21773;50.010;19.972;2023-03-02T06:40:07;99469.00;;;6.52;42.80
35655;BME280;21773;50.010;19.972;2023-03-02T06:43:11;99466.81;;;7.14;41.06
35655;BME280;21773;50.010;19.972;2023-03-02T06:46:15;99473.25;;;8.00;39.39
35655;BME280;21773;50.010;19.972;2023-03-02T06:49:20;99470.09;;;8.88;37.95
35655;BME280;21773;50.010;19.972;2023-03-02T06:52:25;99473.75;;;10.10;35.76
35655;BME280;21773;50.010;19.972;2023-03-02T06:55:28;99474.88;;;12.03;32.91
35655;BME280;21773;50.010;19.972;2023-03-02T06:58:32;99474.69;;;14.13;29.49
35655;BME280;21773;50.010;19.972;2023-03-02T07:01:35;99470.59;;;15.45;27.32
35655;BME280;21773;50.010;19.972;2023-03-02T07:04:40;99472.91;;;16.16;26.42
35655;BME280;21773;50.010;19.972;2023-03-02T07:07:44;99468.78;;;16.92;25.48
35655;BME280;21773;50.010;19.972;2023-03-02T07:10:47;99462.19;;;18.35;23.54
35655;BME280;21773;50.010;19.972;2023-03-02T07:13:50;99465.78;;;20.04;21.69
35655;BME280;21773;50.010;19.972;2023-03-02T07:16:54;99470.09;;;21.92;20.17
35655;BME280;21773;50.010;19.972;2023-03-02T07:19:59;99461.09;;;23.61;18.52
35655;BME280;21773;50.010;19.972;2023-03-02T07:23:03;99454.09;;;25.05;16.91
35655;BME280;21773;50.010;19.972;2023-03-02T07:26:07;99456.38;;;26.25;15.94
35655;BME280;21773;50.010;19.972;2023-03-02T07:29:10;99462.81;;;27.15;14.74
35655;BME280;21773;50.010;19.972;2023-03-02T07:32:13;99454.03;;;27.92;14.14
35655;BME280;21773;50.010;19.972;2023-03-02T07:35:18;99450.38;;;28.48;14.03
35655;BME280;21773;50.010;19.972;2023-03-02T07:38:22;99444.50;;;28.93;12.98
35655;BME280;21773;50.010;19.972;2023-03-02T07:41:25;99450.06;;;29.48;12.71
35655;BME280;21773;50.010;19.972;2023-03-02T07:44:29;99444.81;;;29.93;12.43
35655;BME280;21773;50.010;19.972;2023-03-02T07:47:33;99438.75;;;30.49;11.92
35655;BME280;21773;50.010;19.972;2023-03-02T07:50:37;99442.59;;;30.90;11.85
35655;BME280;21773;50.010;19.972;2023-03-02T07:53:41;99439.13;;;31.26;11.22
35655;BME280;21773;50.010;19.972;2023-03-02T07:56:44;99435.47;;;31.82;10.89
35655;BME280;21773;50.010;19.972;2023-03-02T07:59:47;99448.47;;;32.03;10.88
35655;BME280;21773;50.010;19.972;2023-03-02T08:02:50;99444.19;;;32.30;10.48
35655;BME280;21773;50.010;19.972;2023-03-02T08:05:55;99433.19;;;32.89;10.55
35655;BME280;21773;50.010;19.972;2023-03-02T08:09:00;99438.31;;;33.30;10.01
35655;BME280;21773;50.010;19.972;2023-03-02T08:12:04;99432.34;;;33.63;9.98
35655;BME280;21773;50.010;19.972;2023-03-02T08:15:09;99427.09;;;34.09;9.45
35655;BME280;21773;50.010;19.972;2023-03-02T08:18:12;99433.66;;;34.51;9.52
35655;BME280;21773;50.010;19.972;2023-03-02T08:21:19;99434.94;;;34.92;9.53
35655;BME280;21773;50.010;19.972;2023-03-02T08:24:23;99432.63;;;34.98;8.90
35655;BME280;21773;50.010;19.972;2023-03-02T08:27:26;99429.66;;;35.10;8.74
35655;BME280;21773;50.010;19.972;2023-03-02T08:30:29;99423.06;;;34.99;8.28
35655;BME280;21773;50.010;19.972;2023-03-02T08:33:33;99429.28;;;35.11;8.26
35655;BME280;21773;50.010;19.972;2023-03-02T08:36:38;99424.19;;;34.94;8.36
35655;BME280;21773;50.010;19.972;2023-03-02T08:39:44;99425.13;;;34.83;8.38
35655;BME280;21773;50.010;19.972;2023-03-02T08:42:47;99412.16;;;34.94;8.83
35655;BME280;21773;50.010;19.972;2023-03-02T08:45:58;99419.81;;;34.97;9.10
35655;BME280;21773;50.010;19.972;2023-03-02T08:49:01;99410.88;;;34.91;9.20
35655;BME280;21773;50.010;19.972;2023-03-02T08:52:06;99416.44;;;35.10;9.35
35655;BME280;21773;50.010;19.972;2023-03-02T08:55:10;99410.72;;;35.23;8.49
35655;BME280;21773;50.010;19.972;2023-03-02T08:58:13;99403.34;;;35.37;8.31
35655;BME280;21773;50.010;19.972;2023-03-02T09:01:19;99404.50;;;35.59;8.55
35655;BME280;21773;50.010;19.972;2023-03-02T09:04:23;99411.34;;;35.84;8.32
35655;BME280;21773;50.010;19.972;2023-03-02T09:07:28;99401.06;;;35.66;8.74
35655;BME280;21773;50.010;19.972;2023-03-02T09:10:31;99401.88;;;35.01;8.21
35655;BME280;21773;50.010;19.972;2023-03-02T09:13:34;99403.84;;;35.43;8.82
35655;BME280;21773;50.010;19.972;2023-03-02T09:16:38;99407.88;;;35.68;8.76
35655;BME280;21773;50.010;19.972;2023-03-02T09:19:42;99405.25;;;35.79;8.23
35655;BME280;21773;50.010;19.972;2023-03-02T09:22:47;99402.81;;;36.30;8.47
35655;BME280;21773;50.010;19.972;2023-03-02T09:25:52;99385.94;;;36.26;8.35
35655;BME280;21773;50.010;19.972;2023-03-02T09:28:56;99392.97;;;36.13;8.08
35655;BME280;21773;50.010;19.972;2023-03-02T09:31:59;99394.72;;;35.98;7.89
35655;BME280;21773;50.010;19.972;2023-03-02T09:35:03;99383.84;;;35.44;8.20
35655;BME280;21773;50.010;19.972;2023-03-02T09:38:08;99388.59;;;35.40;8.26
35655;BME280;21773;50.010;19.972;2023-03-02T09:45:14;99385.00;;;35.43;8.09
35655;BME280;21773;50.010;19.972;2023-03-02T09:48:28;99381.75;;;35.64;8.23
35655;BME280;21773;50.010;19.972;2023-03-02T09:51:39;99375.13;;;35.27;8.38
35655;BME280;21773;50.010;19.972;2023-03-02T09:54:47;99384.47;;;35.34;8.08
35655;BME280;21773;50.010;19.972;2023-03-02T09:57:50;99384.66;;;35.45;8.35
35655;BME280;21773;50.010;19.972;2023-03-02T10:00:57;99374.22;;;35.68;8.43
35655;BME280;21773;50.010;19.972;2023-03-02T10:04:12;99370.25;;;35.69;8.45
35655;BME280;21773;50.010;19.972;2023-03-02T10:07:23;99367.63;;;36.10;8.27
35655;BME280;21773;50.010;19.972;2023-03-02T10:10:36;99364.69;;;36.29;8.16
35655;BME280;21773;50.010;19.972;2023-03-02T10:13:46;99362.41;;;36.38;8.04
35655;BME280;21773;50.010;19.972;2023-03-02T10:16:55;99365.00;;;35.94;7.60
35655;BME280;21773;50.010;19.972;2023-03-02T10:20:05;99365.13;;;35.75;7.94
35655;BME280;21773;50.010;19.972;2023-03-02T10:23:25;99361.00;;;35.95;7.85
35655;BME280;21773;50.010;19.972;2023-03-02T10:26:37;99354.59;;;36.21;8.13
35655;BME280;21773;50.010;19.972;2023-03-02T10:29:45;99347.53;;;36.34;7.57
35655;BME280;21773;50.010;19.972;2023-03-02T10:32:51;99346.75;;;36.37;7.67
35655;BME280;21773;50.010;19.972;2023-03-02T10:35:55;99349.78;;;36.21;7.76
35655;BME280;21773;50.010;19.972;2023-03-02T10:38:58;99338.88;;;35.90;7.86
35655;BME280;21773;50.010;19.972;2023-03-02T10:42:06;99331.00;;;35.46;8.18
35655;BME280;21773;50.010;19.972;2023-03-02T10:45:20;99324.72;;;35.30;8.02
35655;BME280;21773;50.010;19.972;2023-03-02T10:48:25;99322.88;;;35.38;8.53
35655;BME280;21773;50.010;19.972;2023-03-02T10:51:30;99316.38;;;35.34;8.04
35655;BME280;21773;50.010;19.972;2023-03-02T10:54:35;99322.00;;;35.60;7.25
35655;BME280;21773;50.010;19.972;2023-03-02T10:57:41;99312.91;;;35.44;8.04
35655;BME280;21773;50.010;19.972;2023-03-02T11:00:54;99313.78;;;35.22;8.22
35655;BME280;21773;50.010;19.972;2023-03-02T11:04:00;99303.00;;;34.59;7.37
35655;BME280;21773;50.010;19.972;2023-03-02T11:07:07;99300.19;;;34.78;8.49
35655;BME280;21773;50.010;19.972;2023-03-02T11:10:18;99294.91;;;34.73;8.00
35655;BME280;21773;50.010;19.972;2023-03-02T11:13:26;99287.81;;;34.79;7.74
35655;BME280;21773;50.010;19.972;2023-03-02T11:16:31;99284.94;;;34.75;8.36
35655;BME280;21773;50.010;19.972;2023-03-02T11:19:37;99287.94;;;34.67;8.26
35655;BME280;21773;50.010;19.972;2023-03-02T11:22:49;99279.16;;;34.26;7.98
35655;BME280;21773;50.010;19.972;2023-03-02T11:25:56;99272.25;;;34.01;7.55
35655;BME280;21773;50.010;19.972;2023-03-02T11:29:05;99272.25;;;34.01;7.90
35655;BME280;21773;50.010;19.972;2023-03-02T11:32:17;99270.22;;;33.82;7.92
35655;BME280;21773;50.010;19.972;2023-03-02T11:35:28;99260.72;;;33.33;7.65
35655;BME280;21773;50.010;19.972;2023-03-02T11:38:41;99251.31;;;33.41;8.32
35655;BME280;21773;50.010;19.972;2023-03-02T11:41:49;99255.00;;;32.35;8.13
35655;BME280;21773;50.010;19.972;2023-03-02T11:44:55;99248.66;;;32.22;8.05
35655;BME280;21773;50.010;19.972;2023-03-02T11:48:02;99241.69;;;32.60;8.37
35655;BME280;21773;50.010;19.972;2023-03-02T11:51:11;99236.25;;;32.08;8.69
35655;BME280;21773;50.010;19.972;2023-03-02T11:54:27;99228.16;;;31.75;8.54
35655;BME280;21773;50.010;19.972;2023-03-02T11:57:34;99238.00;;;31.08;9.05
35655;BME280;21773;50.010;19.972;2023-03-02T12:00:42;99235.56;;;31.07;8.99
35655;BME280;21773;50.010;19.972;2023-03-02T12:03:46;99233.22;;;31.21;8.89
35655;BME280;21773;50.010;19.972;2023-03-02T12:06:49;99228.78;;;30.95;9.68
35655;BME280;21773;50.010;19.972;2023-03-02T12:10:05;99215.75;;;31.48;9.26
35655;BME280;21773;50.010;19.972;2023-03-02T12:13:16;99221.50;;;31.79;9.67
35655;BME280;21773;50.010;19.972;2023-03-02T12:16:32;99217.13;;;31.54;9.90
35655;BME280;21773;50.010;19.972;2023-03-02T12:19:41;99211.34;;;31.59;9.37
35655;BME280;21773;50.010;19.972;2023-03-02T12:22:46;99215.97;;;31.67;9.81
35655;BME280;21773;50.010;19.972;2023-03-02T12:26:01;99214.50;;;31.33;9.59
35655;BME280;21773;50.010;19.972;2023-03-02T12:29:21;99205.47;;;30.64;9.69
35655;BME280;21773;50.010;19.972;2023-03-02T12:32:28;99205.59;;;30.10;10.27
35655;BME280;21773;50.010;19.972;2023-03-02T12:35:33;99201.28;;;29.59;10.48
35655;BME280;21773;50.010;19.972;2023-03-02T12:38:37;99192.00;;;28.20;10.87
35655;BME280;21773;50.010;19.972;2023-03-02T12:45:22;99190.59;;;26.71;12.34
35655;BME280;21773;50.010;19.972;2023-03-02T12:48:40;99187.34;;;25.85;12.53
35655;BME280;21773;50.010;19.972;2023-03-02T12:51:49;99185.69;;;24.90;13.80
35655;BME280;21773;50.010;19.972;2023-03-02T12:55:01;99183.31;;;24.84;14.02
35655;BME280;21773;50.010;19.972;2023-03-02T12:58:15;99179.22;;;24.81;13.82
35655;BME280;21773;50.010;19.972;2023-03-02T13:01:21;99163.94;;;24.62;13.74
35655;BME280;21773;50.010;19.972;2023-03-02T13:04:26;99179.22;;;24.40;14.02
35655;BME280;21773;50.010;19.972;2023-03-02T13:07:35;99173.91;;;24.16;14.51
35655;BME280;21773;50.010;19.972;2023-03-02T13:10:40;99165.50;;;23.75;14.61
35655;BME280;21773;50.010;19.972;2023-03-02T13:13:44;99159.94;;;23.62;15.24
35655;BME280;21773;50.010;19.972;2023-03-02T13:16:54;99156.47;;;23.56;14.63
35655;BME280;21773;50.010;19.972;2023-03-02T13:20:00;99157.34;;;23.52;15.16
35655;BME280;21773;50.010;19.972;2023-03-02T13:23:05;99147.59;;;22.84;15.11
35655;BME280;21773;50.010;19.972;2023-03-02T13:26:24;99137.63;;;22.46;15.82
35655;BME280;21773;50.010;19.972;2023-03-02T13:29:28;99131.44;;;22.35;15.50
35655;BME280;21773;50.010;19.972;2023-03-02T13:32:34;99124.19;;;21.63;16.45
35655;BME280;21773;50.010;19.972;2023-03-02T13:35:45;99131.25;;;21.74;16.55
35655;BME280;21773;50.010;19.972;2023-03-02T13:38:50;99140.38;;;21.65;16.67
35655;BME280;21773;50.010;19.972;2023-03-02T13:41:56;99128.78;;;21.73;16.75
35655;BME280;21773;50.010;19.972;2023-03-02T13:45:12;99123.22;;;21.78;16.55
35655;BME280;21773;50.010;19.972;2023-03-02T13:48:23;99124.88;;;21.79;17.15
35655;BME280;21773;50.010;19.972;2023-03-02T13:51:32;99123.19;;;21.83;17.17
35655;BME280;21773;50.010;19.972;2023-03-02T13:54:36;99108.06;;;21.56;16.32
35655;BME280;21773;50.010;19.972;2023-03-02T13:57:40;99106.03;;;21.38;17.19
35655;BME280;21773;50.010;19.972;2023-03-02T14:00:44;99115.25;;;21.13;17.53
35655;BME280;21773;50.010;19.972;2023-03-02T14:03:47;99114.66;;;21.22;17.57
35655;BME280;21773;50.010;19.972;2023-03-02T14:06:53;99104.97;;;21.34;17.87
35655;BME280;21773;50.010;19.972;2023-03-02T14:09:56;99102.78;;;20.87;17.18
35655;BME280;21773;50.010;19.972;2023-03-02T14:13:02;99097.03;;;20.29;17.71
35655;BME280;21773;50.010;19.972;2023-03-02T14:16:10;99093.03;;;20.02;18.34
35655;BME280;21773;50.010;19.972;2023-03-02T14:19:14;99093.31;;;19.95;18.72
35655;BME280;21773;50.010;19.972;2023-03-02T14:22:22;99091.13;;;19.92;19.19
35655;BME280;21773;50.010;19.972;2023-03-02T14:25:25;99088.41;;;19.92;18.82
35655;BME280;21773;50.010;19.972;2023-03-02T14:28:30;99089.53;;;19.71;18.62
35655;BME280;21773;50.010;19.972;2023-03-02T14:31:36;99098.28;;;19.27;19.34
35655;BME280;21773;50.010;19.972;2023-03-02T14:34:39;99086.22;;;18.98;19.95
35655;BME280;21773;50.010;19.972;2023-03-02T14:37:47;99085.38;;;18.87;19.88
35655;BME280;21773;50.010;19.972;2023-03-02T14:40:51;99089.41;;;18.54;20.22
35655;BME280;21773;50.010;19.972;2023-03-02T14:43:54;99093.81;;;18.08;20.68
35655;BME280;21773;50.010;19.972;2023-03-02T14:46:58;99090.81;;;18.05;21.13
35655;BME280;21773;50.010;19.972;2023-03-02T14:50:02;99090.31;;;18.13;21.41
35655;BME280;21773;50.010;19.972;2023-03-02T14:53:11;99090.66;;;18.27;20.90
35655;BME280;21773;50.010;19.972;2023-03-02T14:56:16;99079.94;;;18.15;21.33
35655;BME280;21773;50.010;19.972;2023-03-02T14:59:20;99081.06;;;17.67;21.61
35655;BME280;21773;50.010;19.972;2023-03-02T15:02:23;99089.81;;;17.37;22.15
35655;BME280;21773;50.010;19.972;2023-03-02T15:05:28;99081.63;;;17.37;22.38
35655;BME280;21773;50.010;19.972;2023-03-02T15:08:33;99072.13;;;17.45;22.95
35655;BME280;21773;50.010;19.972;2023-03-02T15:11:36;99078.41;;;17.45;22.68
35655;BME280;21773;50.010;19.972;2023-03-02T15:14:39;99084.84;;;17.29;23.04
35655;BME280;21773;50.010;19.972;2023-03-02T15:17:42;99079.56;;;17.17;23.97
35655;BME280;21773;50.010;19.972;2023-03-02T15:20:46;99083.78;;;17.03;23.80
35655;BME280;21773;50.010;19.972;2023-03-02T15:23:50;99079.81;;;16.84;23.96
35655;BME280;21773;50.010;19.972;2023-03-02T15:26:54;99087.06;;;16.52;24.79
35655;BME280;21773;50.010;19.972;2023-03-02T15:29:57;99077.13;;;16.19;25.49
35655;BME280;21773;50.010;19.972;2023-03-02T15:33:00;99081.63;;;16.08;25.52
35655;BME280;21773;50.010;19.972;2023-03-02T15:36:04;99078.44;;;15.94;25.74
35655;BME280;21773;50.010;19.972;2023-03-02T15:39:12;99080.53;;;15.87;25.60
35655;BME280;21773;50.010;19.972;2023-03-02T15:42:15;99083.69;;;15.46;26.64
35655;BME280;21773;50.010;19.972;2023-03-02T15:45:19;99086.19;;;15.31;26.72
35655;BME280;21773;50.010;19.972;2023-03-02T15:48:22;99086.75;;;15.16;27.27
35655;BME280;21773;50.010;19.972;2023-03-02T15:51:25;99087.16;;;15.08;27.68
35655;BME280;21773;50.010;19.972;2023-03-02T15:54:30;99077.97;;;14.64;28.68
35655;BME280;21773;50.010;19.972;2023-03-02T15:57:36;99087.69;;;14.48;28.71
35655;BME280;21773;50.010;19.972;2023-03-02T16:00:39;99079.72;;;14.30;28.86
35655;BME280;21773;50.010;19.972;2023-03-02T16:03:43;99085.19;;;14.18;29.06
35655;BME280;21773;50.010;19.972;2023-03-02T16:06:47;99080.03;;;13.94;29.42
35655;BME280;21773;50.010;19.972;2023-03-02T16:09:52;99079.75;;;13.67;29.61
35655;BME280;21773;50.010;19.972;2023-03-02T16:12:55;99091.16;;;13.45;30.28
35655;BME280;21773;50.010;19.972;2023-03-02T16:15:59;99088.91;;;13.31;30.40
35655;BME280;21773;50.010;19.972;2023-03-02T16:19:03;99088.81;;;13.14;30.71
35655;BME280;21773;50.010;19.972;2023-03-02T16:22:06;99091.53;;;12.96;31.24
35655;BME280;21773;50.010;19.972;2023-03-02T16:25:11;99075.34;;;12.66;32.03
35655;BME280;21773;50.010;19.972;2023-03-02T16:28:15;99086.03;;;12.61;31.94